Time;durP1;ratioP1;P1;durP2;ratioP2;P2;SDS_P1;SDS_P2;PMS_P1;PMS_P2;Temp;Humidity;BMP_temperature;BMP_pressure;BME280_temperature;BME280_humidity;BME280_pressure;Samples;Min_cycle;Max_cycle;Signal;HPM_P1;HPM_P2
2021/12/11 00:00:12;;;;;;;;;;;;;;;2.95;73.65;98364.16;5000520;28;19928;-85
2021/12/11 00:02:39;;;;;;;;;;;;;;;2.94;73.54;98372.09;5001345;28;20313;-84
2021/12/11 00:05:05;;;;;;;;;;;;;;;2.95;73.53;98373.78;5002915;28;19933;-84
2021/12/11 00:07:31;;;;;;;;;;;;;;;2.97;73.50;98382.41;5002327;28;19922;-83
2021/12/11 00:09:59;;;;;;;;;;;;;;;2.97;73.49;98383.31;5001256;28;20369;-85
2021/12/11 00:12:45;;;;;;;;;;;;;;;2.98;73.56;98400.69;5024514;28;19922;-90
2021/12/11 00:15:13;;;;;;;;;;;;;;;3.01;73.53;98397.97;5003193;28;19929;-89
2021/12/11 00:17:38;;;;;;;;;;;;;;;3.05;73.49;98411.81;5002739;28;19926;-85
2021/12/11 00:20:05;;;;;;;;;;;;;;;3.04;73.54;98415.34;5001863;28;19924;-87
2021/12/11 00:22:31;;;;;;;;;;;;;;;3.06;73.53;98413.50;5002448;28;19927;-86
2021/12/11 00:24:58;;;;;;;;;;;;;;;3.08;73.52;98422.19;5000357;28;19925;-84
2021/12/11 00:27:25;;;;;;;;;;;;;;;3.07;73.69;98434.41;5001380;28;19921;-85
2021/12/11 00:29:51;;;;;;;;;;;;;;;3.10;73.74;98441.31;5003378;28;19965;-84
2021/12/11 00:32:23;;;;;;;;;;;;;;;3.17;74.22;98452.41;5000790;28;19988;-82
2021/12/11 00:34:50;;;;;;;;;;;;;;;3.15;74.19;98455.09;5000476;28;19922;-83
2021/12/11 00:37:18;;;;;;;;;;;;;;;3.18;74.23;98462.84;5023319;28;20357;-85
2021/12/11 00:39:51;;;;;;;;;;;;;;;3.19;74.29;98471.53;5000758;28;19969;-83
2021/12/11 00:42:20;;;;;;;;;;;;;;;3.19;74.27;98480.28;4999739;28;19932;-83
2021/12/11 00:44:48;;;;;;;;;;;;;;;3.21;74.33;98480.22;5001000;28;19922;-85
2021/12/11 00:47:16;;;;;;;;;;;;;;;3.20;74.24;98483.72;5019104;28;19921;-85
2021/12/11 00:50:08;;;;;;;;;;;;;;;3.22;74.07;98490.63;5000629;28;19932;-88
2021/12/11 00:52:33;;;;;;;;;;;;;;;3.27;74.42;98490.47;4998029;28;19944;-82
2021/12/11 00:54:59;;;;;;;;;;;;;;;3.47;75.74;98497.66;5002607;28;20385;-85
2021/12/11 00:57:24;;;;;;;;;;;;;;;3.63;77.44;98500.59;4999555;28;19921;-84
2021/12/11 01:00:19;;;;;;;;;;;;;;;3.73;79.15;98509.81;4994734;28;20270;-83
2021/12/11 01:02:46;;;;;;;;;;;;;;;3.78;81.00;98521.00;4987929;28;19983;-84
2021/12/11 01:05:11;;;;;;;;;;;;;;;3.82;82.15;98522.59;5000125;28;20326;-87
2021/12/11 01:07:37;;;;;;;;;;;;;;;3.85;83.35;98531.28;5001030;28;19961;-89
2021/12/11 01:10:09;;;;;;;;;;;;;;;3.82;84.18;98538.31;5000510;28;19930;-84
2021/12/11 01:12:44;;;;;;;;;;;;;;;3.78;85.11;98543.72;4999343;28;19922;-86
2021/12/11 01:15:24;;;;;;;;;;;;;;;3.74;85.99;98548.22;5001855;28;19967;-86
2021/12/11 01:18:42;;;;;;;;;;;;;;;3.69;86.58;98555.41;5000293;28;19972;-86
2021/12/11 01:21:01;;;;;;;;;;;;;;;3.65;87.32;98564.25;4996678;28;19921;-84
2021/12/11 01:26:27;;;;;;;;;;;;;;;3.57;88.90;98576.75;5002492;28;20016;-88
2021/12/11 01:28:53;;;;;;;;;;;;;;;3.58;89.74;98578.47;4998650;28;20604;-84
2021/12/11 01:31:21;;;;;;;;;;;;;;;3.52;90.37;98590.00;4999451;28;19921;-87
2021/12/11 01:33:46;;;;;;;;;;;;;;;3.56;90.97;98596.03;5020992;28;20008;-85
2021/12/11 01:36:12;;;;;;;;;;;;;;;3.54;92.12;98603.06;5003957;28;20583;-88
2021/12/11 01:38:42;;;;;;;;;;;;;;;3.62;94.02;98611.50;5004508;28;20392;-82
2021/12/11 01:41:12;;;;;;;;;;;;;;;3.58;95.98;98618.63;5003515;28;19929;-85
2021/12/11 04:15:23;;;;;;;;;;;;;;;3.17;100.00;98934.09;5122044;23;19984;-83
2021/12/11 04:17:49;;;;;;;;;;;;;;;3.16;99.88;98940.22;4991361;28;19932;-82
2021/12/11 04:20:16;;;;;;;;;;;;;;;3.12;99.26;98938.59;4992565;28;19917;-83
2021/12/11 04:22:42;;;;;;;;;;;;;;;3.04;98.82;98939.66;4992875;28;19918;-82
2021/12/11 04:25:08;;;;;;;;;;;;;;;3.00;98.55;98953.72;4992724;28;20016;-83
2021/12/11 04:27:33;;;;;;;;;;;;;;;3.00;98.23;98956.34;4991786;28;19929;-84
2021/12/11 04:30:02;;;;;;;;;;;;;;;2.95;97.98;98960.81;4991554;28;19918;-85
2021/12/11 04:32:31;;;;;;;;;;;;;;;2.90;97.80;98962.69;4992781;28;19921;-83
2021/12/11 04:34:56;;;;;;;;;;;;;;;2.82;97.36;98969.88;4992820;28;19925;-82
2021/12/11 04:37:24;;;;;;;;;;;;;;;2.77;97.22;98977.81;4992869;28;19918;-83
2021/12/11 04:40:02;;;;;;;;;;;;;;;2.71;97.13;98985.81;4992599;28;19922;-90
2021/12/11 04:45:03;;;;;;;;;;;;;;;2.64;96.53;98992.09;4991211;28;20284;-85
2021/12/11 04:47:39;;;;;;;;;;;;;;;2.62;96.48;99001.75;4991153;28;19922;-88
2021/12/11 04:50:14;;;;;;;;;;;;;;;2.59;96.31;99013.13;4990063;28;20387;-83
2021/12/11 04:52:54;;;;;;;;;;;;;;;2.57;96.05;99017.56;4991161;28;19928;-85
2021/12/11 04:55:41;;;;;;;;;;;;;;;2.53;95.89;99018.50;4991092;28;19918;-84
2021/12/11 04:59:09;;;;;;;;;;;;;;;2.51;95.55;99022.91;4989848;28;20371;-81
2021/12/11 05:04:02;;;;;;;;;;;;;;;2.40;94.92;99027.53;4991984;28;19929;-83
2021/12/11 05:09:23;;;;;;;;;;;;;;;2.34;94.20;99031.13;4996582;28;19972;-87
2021/12/11 05:12:07;;;;;;;;;;;;;;;2.29;93.65;99028.59;4995150;28;19918;-82
2021/12/11 05:14:33;;;;;;;;;;;;;;;2.27;93.23;99035.63;5009767;28;19964;-83
2021/12/11 05:16:58;;;;;;;;;;;;;;;2.26;92.98;99039.13;4995167;28;20723;-83
2021/12/11 05:19:23;;;;;;;;;;;;;;;2.22;92.40;99047.94;5011183;28;19914;-82
2021/12/11 05:21:48;;;;;;;;;;;;;;;2.23;92.77;99049.63;4994912;28;19922;-82
2021/12/11 05:24:16;;;;;;;;;;;;;;;2.21;93.21;99059.28;4994741;28;20004;-83
2021/12/11 05:26:41;;;;;;;;;;;;;;;2.21;93.50;99064.50;4990840;28;20047;-82
2021/12/11 05:29:07;;;;;;;;;;;;;;;2.16;93.38;99069.81;4993612;28;19984;-82
2021/12/11 05:31:32;;;;;;;;;;;;;;;2.15;93.13;99062.00;4990258;28;20417;-82
2021/12/11 05:33:57;;;;;;;;;;;;;;;2.12;92.94;99069.91;4994727;28;20005;-82
2021/12/11 05:36:23;;;;;;;;;;;;;;;2.10;92.60;99079.53;4994712;28;19984;-82
2021/12/11 05:38:49;;;;;;;;;;;;;;;2.09;92.21;99083.91;4996032;28;19922;-82
2021/12/11 05:41:16;;;;;;;;;;;;;;;2.05;91.99;99091.84;4995898;28;20012;-83
2021/12/11 05:43:41;;;;;;;;;;;;;;;1.99;91.59;99092.81;4994436;28;19918;-85
2021/12/11 05:46:08;;;;;;;;;;;;;;;1.99;91.44;99101.53;4995818;28;19918;-85
2021/12/11 05:48:33;;;;;;;;;;;;;;;1.93;90.91;99100.75;4995988;28;20420;-86
2021/12/11 05:51:01;;;;;;;;;;;;;;;1.95;90.52;99112.06;4995891;28;19917;-88
2021/12/11 05:53:28;;;;;;;;;;;;;;;1.90;90.28;99114.75;4995778;28;20008;-81
2021/12/11 05:55:55;;;;;;;;;;;;;;;1.87;89.98;99120.03;4995655;28;19921;-83
2021/12/11 05:59:02;;;;;;;;;;;;;;;1.88;89.64;99126.97;4994407;28;19921;-82
2021/12/11 06:01:08;;;;;;;;;;;;;;;1.84;89.52;99130.53;4989154;28;19953;-82
2021/12/11 06:03:37;;;;;;;;;;;;;;;1.83;88.93;99135.78;4995508;28;20375;-82
2021/12/11 06:06:02;;;;;;;;;;;;;;;1.80;88.56;99144.53;4994364;28;19929;-84
2021/12/11 08:56:46;;;;;;;;;;;;;;;1.55;78.45;99515.78;4977240;23;20009;-82
2021/12/11 08:59:14;;;;;;;;;;;;;;;1.55;78.33;99521.00;4992498;28;20028;-80
2021/12/11 09:01:56;;;;;;;;;;;;;;;1.49;78.05;99531.53;4991924;28;19922;-84
2021/12/11 09:04:24;;;;;;;;;;;;;;;1.51;78.15;99534.97;4990283;28;21385;-80
2021/12/11 09:06:58;;;;;;;;;;;;;;;1.51;78.23;99545.41;4991021;28;19921;-87
2021/12/11 09:09:23;;;;;;;;;;;;;;;1.54;78.01;99545.38;5005595;28;19934;-82
2021/12/11 09:11:51;;;;;;;;;;;;;;;1.49;78.01;99552.41;4992236;28;19990;-81
2021/12/11 09:14:16;;;;;;;;;;;;;;;1.47;77.96;99554.19;4990942;28;20400;-80
2021/12/11 09:16:48;;;;;;;;;;;;;;;1.48;77.91;99561.13;4991087;28;19914;-81
2021/12/11 09:19:18;;;;;;;;;;;;;;;1.51;77.77;99561.09;4986845;28;20365;-82
2021/12/11 09:21:48;;;;;;;;;;;;;;;1.51;77.68;99563.69;4986237;28;19914;-87
2021/12/11 09:24:18;;;;;;;;;;;;;;;1.50;77.28;99564.59;4991050;28;20400;-86
2021/12/11 09:26:50;;;;;;;;;;;;;;;1.49;77.35;99562.84;4990920;28;20293;-86
2021/12/11 09:29:22;;;;;;;;;;;;;;;1.53;77.10;99566.28;5006655;28;20373;-88
2021/12/11 09:32:06;;;;;;;;;;;;;;;1.51;77.19;99574.13;5006711;28;19922;-87
2021/12/11 09:34:40;;;;;;;;;;;;;;;1.57;77.00;99574.09;4990847;28;20377;-81
2021/12/11 09:37:06;;;;;;;;;;;;;;;1.54;76.74;99578.47;5006538;28;19925;-81
2021/12/11 09:39:34;;;;;;;;;;;;;;;1.53;76.82;99577.63;4990846;28;19981;-81
2021/12/11 09:41:59;;;;;;;;;;;;;;;1.56;76.84;99580.19;4986482;28;19918;-87
2021/12/11 09:44:29;;;;;;;;;;;;;;;1.55;76.78;99573.25;4990814;28;19925;-81
2021/12/11 09:47:06;;;;;;;;;;;;;;;1.57;76.67;99565.41;5007058;28;19917;-81
2021/12/11 09:49:35;;;;;;;;;;;;;;;1.61;76.60;99578.41;4991825;28;19926;-87
2021/12/11 09:52:14;;;;;;;;;;;;;;;1.60;76.56;99592.34;4990752;28;19926;-87
2021/12/11 09:54:39;;;;;;;;;;;;;;;1.59;76.47;99595.81;4993930;28;19929;-88
2021/12/11 09:57:07;;;;;;;;;;;;;;;1.60;76.49;99608.00;4992105;28;20288;-87
2021/12/11 09:59:34;;;;;;;;;;;;;;;1.60;76.30;99608.00;5010486;28;19941;-88
2021/12/11 10:02:02;;;;;;;;;;;;;;;1.60;76.45;99621.06;4994309;28;20465;-82
2021/12/11 10:04:36;;;;;;;;;;;;;;;1.58;76.19;99617.63;4993898;28;19924;-89
2021/12/11 10:09:36;;;;;;;;;;;;;;;1.63;76.25;99613.22;4994055;28;19972;-86
2021/12/11 10:12:22;;;;;;;;;;;;;;;1.66;76.44;99621.88;4995214;28;19922;-86
2021/12/11 10:14:53;;;;;;;;;;;;;;;1.65;76.42;99625.41;4993227;28;19918;-87
2021/12/11 10:17:21;;;;;;;;;;;;;;;1.66;76.24;99634.94;5009618;28;20416;-88
2021/12/11 10:19:48;;;;;;;;;;;;;;;1.71;76.12;99635.78;4995181;28;20400;-88
2021/12/11 10:22:19;;;;;;;;;;;;;;;1.69;76.15;99634.94;4993855;28;19922;-85
2021/12/11 10:24:44;;;;;;;;;;;;;;;1.72;75.98;99642.75;4989796;28;20004;-87
2021/12/11 10:27:11;;;;;;;;;;;;;;;1.75;76.06;99642.72;4994103;28;20449;-88
2021/12/11 10:29:36;;;;;;;;;;;;;;;1.74;76.10;99651.41;4993898;28;19918;-87
2021/12/11 10:32:06;;;;;;;;;;;;;;;1.76;76.09;99644.47;4993802;28;19929;-83
2021/12/11 10:34:32;;;;;;;;;;;;;;;1.76;76.29;99644.47;4994591;28;19956;-84
2021/12/11 10:37:02;;;;;;;;;;;;;;;1.76;76.28;99644.47;4995019;28;19971;-81
2021/12/11 10:39:28;;;;;;;;;;;;;;;1.81;76.29;99663.56;4993812;28;20393;-83
2021/12/11 10:41:53;;;;;;;;;;;;;;;1.81;76.38;99653.13;4993739;28;19957;-83
2021/12/11 10:44:30;;;;;;;;;;;;;;;1.84;76.25;99654.84;4995070;28;19918;-83
2021/12/11 10:46:55;;;;;;;;;;;;;;;1.88;76.50;99665.22;5009590;28;19922;-88
2021/12/11 10:49:20;;;;;;;;;;;;;;;1.83;76.06;99667.00;4993752;28;19928;-84
2021/12/11 10:51:47;;;;;;;;;;;;;;;1.87;76.32;99668.72;4993590;28;19918;-83
2021/12/11 10:54:14;;;;;;;;;;;;;;;1.87;75.85;99663.50;4993115;28;19922;-83
2021/12/11 10:56:39;;;;;;;;;;;;;;;1.86;75.85;99666.13;4992925;28;20269;-89
2021/12/11 10:59:09;;;;;;;;;;;;;;;1.86;75.84;99677.44;4994689;28;19925;-85
2021/12/11 11:01:37;;;;;;;;;;;;;;;1.86;75.65;99680.06;4994406;28;19918;-91
2021/12/11 11:04:09;;;;;;;;;;;;;;;1.90;75.55;99673.94;4991957;28;19969;-92
2021/12/11 11:06:35;;;;;;;;;;;;;;;1.93;75.54;99681.75;4994054;28;20283;-85
2021/12/11 11:09:00;;;;;;;;;;;;;;;1.93;75.50;99692.19;4994458;28;20004;-92
2021/12/11 11:11:27;;;;;;;;;;;;;;;1.97;75.55;99687.81;4993333;28;19925;-85
2021/12/11 11:13:52;;;;;;;;;;;;;;;1.96;75.48;99681.72;4993714;28;20336;-83
2021/12/11 11:16:18;;;;;;;;;;;;;;;1.98;75.45;99685.19;4994411;28;19976;-83
2021/12/11 11:18:44;;;;;;;;;;;;;;;2.00;75.64;99690.38;4994328;28;19983;-83
2021/12/11 11:21:14;;;;;;;;;;;;;;;2.04;75.27;99688.59;4994395;28;20008;-85
2021/12/11 11:23:41;;;;;;;;;;;;;;;2.02;75.33;99690.38;4994126;28;19957;-84
2021/12/11 11:26:10;;;;;;;;;;;;;;;2.04;75.10;99686.00;4992769;28;20441;-84
2021/12/11 11:28:37;;;;;;;;;;;;;;;2.06;75.27;99689.44;4993117;28;20298;-83
2021/12/11 11:31:05;;;;;;;;;;;;;;;2.07;74.99;99685.97;4993092;28;19918;-85
2021/12/11 11:33:30;;;;;;;;;;;;;;;2.09;75.05;99690.31;4994065;28;19964;-89
2021/12/11 11:35:57;;;;;;;;;;;;;;;2.12;74.97;99699.84;4992544;28;19929;-91
2021/12/11 11:38:25;;;;;;;;;;;;;;;2.11;74.88;99699.00;4993702;28;19918;-89
2021/12/11 11:40:54;;;;;;;;;;;;;;;2.15;74.86;99699.81;4992455;28;19973;-85
2021/12/11 11:43:20;;;;;;;;;;;;;;;2.13;74.62;99705.06;4992548;28;20004;-82
2021/12/11 11:45:47;;;;;;;;;;;;;;;2.16;74.67;99712.88;4992349;28;20445;-86
2021/12/11 11:48:12;;;;;;;;;;;;;;;2.20;74.76;99712.84;4993623;28;20008;-84
2021/12/11 11:50:39;;;;;;;;;;;;;;;2.24;74.84;99719.78;4992550;28;20020;-89
2021/12/11 11:53:05;;;;;;;;;;;;;;;2.22;74.72;99709.34;4992974;28;19925;-92
2021/12/11 11:55:34;;;;;;;;;;;;;;;2.25;74.97;99718.88;4992268;28;19926;-90
2021/12/11 11:57:59;;;;;;;;;;;;;;;2.27;75.05;99715.41;4994087;28;19922;-89
2021/12/11 12:00:28;;;;;;;;;;;;;;;2.27;75.12;99720.63;4992939;28;19964;-91
2021/12/11 12:02:55;;;;;;;;;;;;;;;2.31;75.17;99721.44;4993665;28;20001;-88
2021/12/11 12:05:22;;;;;;;;;;;;;;;2.32;75.17;99724.06;4993825;28;20383;-90
2021/12/11 12:07:48;;;;;;;;;;;;;;;2.31;75.09;99738.03;4992706;28;20289;-88
2021/12/11 12:10:16;;;;;;;;;;;;;;;2.36;75.22;99731.00;4992355;28;19917;-90
2021/12/11 12:12:42;;;;;;;;;;;;;;;2.35;75.18;99734.47;4992445;28;19926;-91
2021/12/11 12:15:10;;;;;;;;;;;;;;;2.38;75.21;99748.41;4993471;28;19917;-90
2021/12/11 12:17:38;;;;;;;;;;;;;;;2.42;75.22;99744.88;4993609;28;19949;-92
2021/12/11 12:20:05;;;;;;;;;;;;;;;2.41;75.12;99745.75;4993383;28;19917;-91
2021/12/11 12:22:31;;;;;;;;;;;;;;;2.43;75.34;99752.72;4991861;28;20289;-85
2021/12/11 12:24:57;;;;;;;;;;;;;;;2.44;75.15;99753.56;4991877;28;19918;-87
2021/12/11 12:27:24;;;;;;;;;;;;;;;2.45;75.15;99755.31;4993151;28;19922;-83
2021/12/11 12:29:49;;;;;;;;;;;;;;;2.48;75.22;99755.28;4993502;28;19928;-84
2021/12/11 12:32:18;;;;;;;;;;;;;;;2.48;75.13;99765.75;4992877;28;20008;-84
2021/12/11 12:34:43;;;;;;;;;;;;;;;2.48;75.26;99766.59;4993114;28;19921;-90
2021/12/11 12:37:09;;;;;;;;;;;;;;;2.52;75.15;99767.44;4991746;28;20475;-84
2021/12/11 12:39:38;;;;;;;;;;;;;;;2.50;75.09;99767.44;4990445;28;20262;-92
2021/12/11 12:42:20;;;;;;;;;;;;;;;2.56;75.03;99768.28;4992897;28;19973;-91
2021/12/11 12:44:52;;;;;;;;;;;;;;;2.53;75.03;99774.41;4992628;28;20403;-83
2021/12/11 12:47:20;;;;;;;;;;;;;;;2.54;75.15;99777.00;4991676;28;19925;-84
2021/12/11 12:49:47;;;;;;;;;;;;;;;2.60;75.53;99781.31;4991813;28;19988;-84
2021/12/11 12:52:15;;;;;;;;;;;;;;;2.79;76.88;99783.72;4991799;28;20257;-90
2021/12/11 12:54:41;;;;;;;;;;;;;;;3.03;79.32;99786.06;4989750;28;19922;-83
2021/12/11 12:57:33;;;;;;;;;;;;;;;3.14;81.34;99793.78;5007511;28;19929;-85
2021/12/11 13:00:14;;;;;;;;;;;;;;;3.24;83.81;99794.56;4988205;28;19919;-88
2021/12/11 13:02:40;;;;;;;;;;;;;;;3.24;85.51;99797.16;4992791;28;19964;-85
2021/12/11 13:05:13;;;;;;;;;;;;;;;3.22;86.95;99804.16;4991660;28;19918;-86
2021/12/11 13:07:39;;;;;;;;;;;;;;;3.20;88.27;99805.94;4992548;28;19917;-86
2021/12/11 13:10:07;;;;;;;;;;;;;;;3.21;89.23;99805.06;4989909;28;19964;-84
2021/12/11 13:12:36;;;;;;;;;;;;;;;3.19;90.12;99804.19;4992240;28;19918;-83
2021/12/11 13:15:05;;;;;;;;;;;;;;;3.19;90.95;99815.56;4992572;28;19949;-83
2021/12/11 13:17:33;;;;;;;;;;;;;;;3.21;91.79;99805.91;4990286;28;20627;-90
2021/12/11 13:20:02;;;;;;;;;;;;;;;3.17;92.40;99808.59;4992398;28;19925;-84
2021/12/11 13:22:30;;;;;;;;;;;;;;;3.17;93.16;99821.69;4992439;28;19917;-85
2021/12/11 13:24:59;;;;;;;;;;;;;;;3.17;93.96;99822.53;4990888;28;20284;-84
2021/12/11 13:27:25;;;;;;;;;;;;;;;3.09;95.13;99820.03;4990573;28;19929;-83
2021/12/11 13:29:54;;;;;;;;;;;;;;;3.18;96.46;99828.66;4995095;28;19937;-84
2021/12/11 13:32:21;;;;;;;;;;;;;;;3.20;97.99;99825.13;4996345;28;19922;-84
2021/12/11 13:34:49;;;;;;;;;;;;;;;3.32;100.00;99823.25;4996219;28;20005;-84
2021/12/11 13:37:16;;;;;;;;;;;;;;;3.54;100.00;99832.56;5010933;28;19929;-91
2021/12/11 13:39:42;;;;;;;;;;;;;;;3.70;100.00;99838.47;5010353;28;19932;-91
2021/12/11 13:42:09;;;;;;;;;;;;;;;3.84;100.00;99829.53;4995130;28;19985;-90
2021/12/11 13:44:37;;;;;;;;;;;;;;;3.91;100.00;99833.78;4996055;28;20049;-85
2021/12/11 13:47:04;;;;;;;;;;;;;;;3.97;100.00;99833.69;4994748;28;20468;-92
2021/12/11 13:49:30;;;;;;;;;;;;;;;4.04;100.00;99837.97;4995035;28;19964;-91
2021/12/11 13:51:55;;;;;;;;;;;;;;;4.12;100.00;99828.22;4996154;28;19922;-92
2021/12/11 13:54:21;;;;;;;;;;;;;;;4.17;100.00;99836.88;4994539;28;20361;-85
2021/12/11 13:56:50;;;;;;;;;;;;;;;4.21;100.00;99848.19;4995642;28;19925;-85
2021/12/11 13:59:15;;;;;;;;;;;;;;;4.28;100.00;99843.72;4995070;28;20300;-88
2021/12/11 14:01:41;;;;;;;;;;;;;;;4.31;100.00;99854.19;4995698;28;20004;-92
2021/12/11 14:04:09;;;;;;;;;;;;;;;4.37;100.00;99856.66;4995301;28;19918;-88
2021/12/11 14:06:34;;;;;;;;;;;;;;;4.41;100.00;99865.38;5009876;28;19918;-84
2021/12/11 14:09:06;;;;;;;;;;;;;;;4.45;100.00;99862.69;4995749;28;20301;-89
2021/12/11 14:11:32;;;;;;;;;;;;;;;4.48;100.00;99872.25;4994489;28;19921;-91
2021/12/11 14:13:58;;;;;;;;;;;;;;;4.50;100.00;99870.44;4995783;28;19921;-91
2021/12/11 14:16:23;;;;;;;;;;;;;;;4.55;100.00;99882.63;4994400;28;20293;-88
2021/12/11 14:18:49;;;;;;;;;;;;;;;4.60;100.00;99885.16;4994657;28;20020;-91
2021/12/11 14:21:16;;;;;;;;;;;;;;;4.64;100.00;99889.50;4995583;28;19925;-91
2021/12/11 14:23:42;;;;;;;;;;;;;;;4.67;100.00;99893.81;4995619;28;20266;-92
2021/12/11 14:26:12;;;;;;;;;;;;;;;4.64;100.00;99893.84;4994298;28;19968;-91
2021/12/11 14:28:38;;;;;;;;;;;;;;;3.68;100.00;99904.88;4994428;28;19922;-91
2021/12/11 14:31:06;;;;;;;;;;;;;;;3.25;100.00;99907.13;4995213;28;19976;-90
2021/12/11 14:33:32;;;;;;;;;;;;;;;3.08;100.00;99912.56;4995393;28;19926;-89
2021/12/11 14:35:58;;;;;;;;;;;;;;;2.95;100.00;99916.16;4994683;28;20044;-88
2021/12/11 14:38:24;;;;;;;;;;;;;;;2.82;100.00;99925.00;4993941;28;20340;-91
2021/12/11 14:40:50;;;;;;;;;;;;;;;2.86;100.00;99924.13;4994061;28;19925;-91
2021/12/11 14:43:20;;;;;;;;;;;;;;;2.72;100.00;99921.63;4995093;28;19924;-91
2021/12/11 14:45:46;;;;;;;;;;;;;;;2.66;100.00;99933.00;4995082;28;19918;-88
2021/12/11 14:48:11;;;;;;;;;;;;;;;2.64;99.78;99919.06;4993721;28;19922;-88
2021/12/11 14:50:40;;;;;;;;;;;;;;;2.57;98.69;99927.84;4995129;28;20324;-87
2021/12/11 14:53:07;;;;;;;;;;;;;;;2.51;98.04;99939.22;4993914;28;19918;-90
2021/12/11 14:55:39;;;;;;;;;;;;;;;2.44;97.27;99931.44;4993735;28;19913;-91
2021/12/11 14:58:05;;;;;;;;;;;;;;;2.51;96.51;99938.38;4993670;28;20419;-90
2021/12/11 15:00:31;;;;;;;;;;;;;;;2.39;95.64;99933.22;4993912;28;19922;-90
2021/12/11 15:02:56;;;;;;;;;;;;;;;2.37;95.03;99935.84;4995137;28;19940;-90
2021/12/11 15:05:25;;;;;;;;;;;;;;;2.43;94.11;99941.03;4994172;28;19922;-88
2021/12/11 15:07:51;;;;;;;;;;;;;;;2.27;93.36;99948.13;4994483;28;19994;-91
2021/12/11 15:10:19;;;;;;;;;;;;;;;2.26;92.97;99948.97;4993620;28;19918;-92
2021/12/11 15:12:45;;;;;;;;;;;;;;;2.27;92.26;99953.34;4993598;28;19922;-90
2021/12/11 15:15:11;;;;;;;;;;;;;;;2.20;91.73;99956.84;4993503;28;20073;-90
2021/12/11 15:17:36;;;;;;;;;;;;;;;2.16;91.06;99960.38;4995058;28;19965;-93
2021/12/11 15:20:07;;;;;;;;;;;;;;;2.15;90.14;99963.88;4995010;28;19953;-92
2021/12/11 15:22:32;;;;;;;;;;;;;;;2.04;89.75;99977.00;4994072;28;20004;-90
2021/12/11 15:25:01;;;;;;;;;;;;;;;2.02;89.56;99973.53;4993192;28;20349;-93
2021/12/11 15:27:27;;;;;;;;;;;;;;;2.08;89.01;99985.72;4994550;28;19993;-91
2021/12/11 15:29:55;;;;;;;;;;;;;;;1.97;88.52;99984.00;4993378;28;19934;-91
2021/12/11 15:32:20;;;;;;;;;;;;;;;1.91;88.22;99988.38;4992805;28;19921;-90
2021/12/11 15:34:45;;;;;;;;;;;;;;;1.92;87.87;99991.00;4992959;28;20357;-91
2021/12/11 15:37:12;;;;;;;;;;;;;;;1.89;87.65;99996.22;4993245;28;19944;-89
2021/12/11 15:39:40;;;;;;;;;;;;;;;1.78;87.50;100003.25;4993005;28;20048;-91
2021/12/11 15:42:06;;;;;;;;;;;;;;;1.84;87.53;100007.59;4992923;28;19922;-89
2021/12/11 15:44:40;;;;;;;;;;;;;;;1.82;87.21;100018.06;4994220;28;20003;-92
2021/12/11 15:47:07;;;;;;;;;;;;;;;1.80;86.91;100011.94;4992536;28;19922;-90
2021/12/11 15:49:32;;;;;;;;;;;;;;;1.79;86.75;100026.75;4992096;28;20393;-91
2021/12/11 15:51:58;;;;;;;;;;;;;;;1.73;86.54;100036.38;4992250;28;19968;-92
2021/12/11 15:54:23;;;;;;;;;;;;;;;1.76;86.28;100033.75;4992623;28;20036;-88
2021/12/11 15:56:49;;;;;;;;;;;;;;;1.73;86.01;100036.38;4993387;28;19969;-91
2021/12/11 15:59:16;;;;;;;;;;;;;;;1.71;85.76;100054.66;4993734;28;19961;-90
2021/12/11 16:01:42;;;;;;;;;;;;;;;1.60;85.93;100049.44;5008781;28;19933;-89
2021/12/11 16:04:10;;;;;;;;;;;;;;;1.64;85.90;100058.13;4992474;28;19921;-91
2021/12/11 16:06:38;;;;;;;;;;;;;;;1.66;85.82;100060.75;4992973;28;19925;-91
2021/12/11 16:09:04;;;;;;;;;;;;;;;1.63;85.48;100067.72;5008817;28;20023;-85
2021/12/11 16:11:30;;;;;;;;;;;;;;;1.61;85.42;100059.03;4990403;28;19918;-89
2021/12/11 16:13:56;;;;;;;;;;;;;;;1.61;85.56;100063.38;4991943;28;19925;-90
2021/12/11 16:16:31;;;;;;;;;;;;;;;1.60;85.68;100066.88;4991656;28;19977;-88
2021/12/11 16:18:56;;;;;;;;;;;;;;;1.59;85.46;100067.72;5007652;28;20315;-89
2021/12/11 16:21:23;;;;;;;;;;;;;;;1.53;85.35;100073.84;4991726;28;20013;-89
2021/12/11 16:23:57;;;;;;;;;;;;;;;1.53;85.28;100073.84;4991758;28;20438;-88
2021/12/11 16:26:23;;;;;;;;;;;;;;;1.48;85.23;100087.78;5006514;28;19998;-89
2021/12/11 16:28:49;;;;;;;;;;;;;;;1.48;85.19;100083.41;4991693;28;20076;-89
2021/12/11 16:31:14;;;;;;;;;;;;;;;1.47;85.31;100088.63;4991745;28;19985;-90
2021/12/11 16:33:44;;;;;;;;;;;;;;;1.51;85.27;100095.63;4992874;28;19921;-90
2021/12/11 16:36:19;;;;;;;;;;;;;;;1.44;84.80;100108.66;5007574;28;20361;-89
2021/12/11 16:38:45;;;;;;;;;;;;;;;1.46;84.92;100108.66;5007721;28;19918;-89
2021/12/11 16:41:10;;;;;;;;;;;;;;;1.44;84.67;100113.03;4990133;28;19917;-88
2021/12/11 16:43:36;;;;;;;;;;;;;;;1.40;84.56;100119.13;4991532;28;19925;-88
2021/12/11 16:46:01;;;;;;;;;;;;;;;1.43;84.47;100121.72;4992593;28;19926;-89
2021/12/11 16:48:31;;;;;;;;;;;;;;;1.44;84.51;100129.56;4991383;28;19961;-88
2021/12/11 16:51:00;;;;;;;;;;;;;;;1.39;84.38;100127.84;4991351;28;19959;-89
2021/12/11 16:53:28;;;;;;;;;;;;;;;1.37;84.43;100135.66;4991335;28;19964;-89
2021/12/11 16:55:54;;;;;;;;;;;;;;;1.41;84.37;100139.16;4990051;28;19929;-90
2021/12/11 16:58:21;;;;;;;;;;;;;;;1.40;84.40;100134.78;4991239;28;19921;-89
2021/12/11 17:00:49;;;;;;;;;;;;;;;1.36;84.31;100135.66;4991297;28;20476;-88
2021/12/11 17:03:15;;;;;;;;;;;;;;;1.40;84.36;100142.63;4991479;28;20012;-90
2021/12/11 17:05:48;;;;;;;;;;;;;;;1.36;84.15;100149.59;4990938;28;20514;-88
2021/12/11 17:08:13;;;;;;;;;;;;;;;1.30;84.09;100146.97;4990807;28;19922;-89
2021/12/11 17:10:50;;;;;;;;;;;;;;;1.31;84.19;100147.81;4989893;28;19922;-87
2021/12/11 17:13:17;;;;;;;;;;;;;;;1.35;84.26;100150.44;5007275;28;19918;-88
2021/12/11 17:15:45;;;;;;;;;;;;;;;1.37;84.28;100158.28;4992529;28;19930;-89
2021/12/11 17:18:30;;;;;;;;;;;;;;;1.35;84.23;100160.03;4990308;28;19922;-88
2021/12/11 17:21:05;;;;;;;;;;;;;;;1.35;84.04;100163.50;4991306;28;20254;-89
2021/12/11 17:23:31;;;;;;;;;;;;;;;1.31;83.98;100167.00;4990532;28;19973;-88
2021/12/11 17:25:57;;;;;;;;;;;;;;;1.34;83.92;100173.94;4991304;28;20447;-88
2021/12/11 17:28:27;;;;;;;;;;;;;;;1.35;83.82;100175.69;4990983;28;20431;-91
2021/12/11 17:30:53;;;;;;;;;;;;;;;1.30;83.81;100177.44;4992298;28;19922;-88
2021/12/11 17:33:18;;;;;;;;;;;;;;;1.32;83.65;100175.69;4991493;28;20349;-89
2021/12/11 17:35:44;;;;;;;;;;;;;;;1.31;83.43;100187.00;4990865;28;19925;-88
2021/12/11 17:38:10;;;;;;;;;;;;;;;1.29;83.41;100193.97;4992593;28;19925;-89
2021/12/11 17:40:35;;;;;;;;;;;;;;;1.29;83.17;100189.59;4989888;28;19926;-88
2021/12/11 17:43:01;;;;;;;;;;;;;;;1.23;83.29;100198.31;4990724;28;20008;-88
2021/12/11 17:45:29;;;;;;;;;;;;;;;1.31;83.27;100200.06;4990687;28;19918;-87
2021/12/11 17:48:00;;;;;;;;;;;;;;;1.24;83.22;100205.25;4992238;28;19925;-88
2021/12/11 17:50:31;;;;;;;;;;;;;;;1.24;82.98;100205.25;4990946;28;19929;-89
2021/12/11 17:52:57;;;;;;;;;;;;;;;1.29;82.87;100207.03;4991641;28;19918;-87
2021/12/11 17:55:28;;;;;;;;;;;;;;;1.23;82.53;100205.28;4989389;28;19929;-88
2021/12/11 17:57:54;;;;;;;;;;;;;;;1.20;82.42;100213.09;5006583;28;20289;-89
2021/12/11 18:00:25;;;;;;;;;;;;;;;1.22;82.41;100222.66;5006793;28;19925;-88
2021/12/11 18:02:50;;;;;;;;;;;;;;;1.23;82.19;100228.78;4990846;28;19925;-89
2021/12/11 18:05:21;;;;;;;;;;;;;;;1.23;82.28;100231.41;4991908;28;19918;-86
2021/12/11 18:07:50;;;;;;;;;;;;;;;1.23;82.19;100234.88;4991878;28;19949;-89
2021/12/11 18:10:24;;;;;;;;;;;;;;;1.22;81.89;100246.16;5005182;28;20005;-88
2021/12/11 18:13:06;;;;;;;;;;;;;;;1.19;81.64;100235.72;5006979;28;20284;-89
2021/12/11 18:15:34;;;;;;;;;;;;;;;1.16;81.54;100238.31;5009863;28;19922;-88
2021/12/11 18:18:03;;;;;;;;;;;;;;;1.21;81.58;100241.84;4995309;28;19925;-88
2021/12/11 18:20:33;;;;;;;;;;;;;;;1.18;81.49;100241.81;4994013;28;19917;-88
2021/12/11 18:22:58;;;;;;;;;;;;;;;1.18;81.33;100247.03;4994132;28;20040;-88
2021/12/11 18:25:27;;;;;;;;;;;;;;;1.21;81.32;100252.28;4992500;28;20072;-89
2021/12/11 18:27:52;;;;;;;;;;;;;;;1.16;80.91;100253.97;4995352;28;20360;-89
2021/12/11 18:30:20;;;;;;;;;;;;;;;1.17;81.03;100266.16;4994105;28;19918;-88
2021/12/11 18:32:45;;;;;;;;;;;;;;;1.16;80.86;100264.41;4993276;28;19930;-89